sensor_id;sensor_type;location;lat;lon;timestamp;P1;P2;P0
70436;PMS5003;57877;39.750;-104.894;2024-02-16T00:02:06;16;15;
70436;PMS5003;57877;39.750;-104.894;2024-02-16T00:04:31;17;16;
70436;PMS5003;57877;39.750;-104.894;2024-02-16T00:06:56;19;18;
70436;PMS5003;57877;39.750;-104.894;2024-02-16T00:09:21;20;19;
70436;PMS5003;57877;39.750;-104.894;2024-02-16T00:11:47;17;17;
70436;PMS5003;57877;39.750;-104.894;2024-02-16T00:14:12;21;20;
70436;PMS5003;57877;39.750;-104.894;2024-02-16T00:16:37;18;18;
70436;PMS5003;57877;39.750;-104.894;2024-02-16T00:19:02;20;19;
70436;PMS5003;57877;39.750;-104.894;2024-02-16T00:21:27;21;21;
70436;PMS5003;57877;39.750;-104.894;2024-02-16T00:23:52;23;20;
70436;PMS5003;57877;39.750;-104.894;2024-02-16T00:26:17;18;18;
70436;PMS5003;57877;39.750;-104.894;2024-02-16T00:28:42;18;18;
70436;PMS5003;57877;39.750;-104.894;2024-02-16T00:31:07;20;20;
70436;PMS5003;57877;39.750;-104.894;2024-02-16T00:33:33;20;20;
70436;PMS5003;57877;39.750;-104.894;2024-02-16T00:35:58;20;18;
70436;PMS5003;57877;39.750;-104.894;2024-02-16T00:38:23;18;16;
70436;PMS5003;57877;39.750;-104.894;2024-02-16T00:40:49;17;16;
70436;PMS5003;57877;39.750;-104.894;2024-02-16T00:43:15;16;16;
70436;PMS5003;57877;39.750;-104.894;2024-02-16T00:45:41;18;17;
70436;PMS5003;57877;39.750;-104.894;2024-02-16T00:48:07;18;18;
70436;PMS5003;57877;39.750;-104.894;2024-02-16T00:50:33;15;14;
70436;PMS5003;57877;39.750;-104.894;2024-02-16T00:52:59;16;13;
70436;PMS5003;57877;39.750;-104.894;2024-02-16T00:55:24;14;14;
70436;PMS5003;57877;39.750;-104.894;2024-02-16T00:57:49;15;13;
70436;PMS5003;57877;39.750;-104.894;2024-02-16T01:00:15;15;14;
70436;PMS5003;57877;39.750;-104.894;2024-02-16T01:02:39;14;13;
70436;PMS5003;57877;39.750;-104.894;2024-02-16T01:05:05;16;15;
70436;PMS5003;57877;39.750;-104.894;2024-02-16T01:07:30;16;14;
70436;PMS5003;57877;39.750;-104.894;2024-02-16T01:09:55;18;16;
70436;PMS5003;57877;39.750;-104.894;2024-02-16T01:12:21;19;18;
70436;PMS5003;57877;39.750;-104.894;2024-02-16T01:14:47;17;16;
70436;PMS5003;57877;39.750;-104.894;2024-02-16T01:17:13;18;17;
70436;PMS5003;57877;39.750;-104.894;2024-02-16T01:19:38;16;16;
70436;PMS5003;57877;39.750;-104.894;2024-02-16T01:22:03;17;16;
70436;PMS5003;57877;39.750;-104.894;2024-02-16T01:24:29;18;17;
70436;PMS5003;57877;39.750;-104.894;2024-02-16T01:26:55;18;18;
70436;PMS5003;57877;39.750;-104.894;2024-02-16T01:29:20;21;21;
70436;PMS5003;57877;39.750;-104.894;2024-02-16T01:31:45;20;19;
70436;PMS5003;57877;39.750;-104.894;2024-02-16T01:34:10;21;18;
70436;PMS5003;57877;39.750;-104.894;2024-02-16T01:36:35;20;19;
70436;PMS5003;57877;39.750;-104.894;2024-02-16T01:39:00;21;20;
70436;PMS5003;57877;39.750;-104.894;2024-02-16T01:41:25;20;18;
70436;PMS5003;57877;39.750;-104.894;2024-02-16T01:43:52;20;18;
70436;PMS5003;57877;39.750;-104.894;2024-02-16T01:46:16;19;18;
70436;PMS5003;57877;39.750;-104.894;2024-02-16T01:48:42;20;18;
70436;PMS5003;57877;39.750;-104.894;2024-02-16T01:51:07;18;16;
70436;PMS5003;57877;39.750;-104.894;2024-02-16T01:53:32;20;19;
70436;PMS5003;57877;39.750;-104.894;2024-02-16T01:55:58;20;19;
70436;PMS5003;57877;39.750;-104.894;2024-02-16T01:58:23;19;19;
70436;PMS5003;57877;39.750;-104.894;2024-02-16T02:00:48;20;20;
70436;PMS5003;57877;39.750;-104.894;2024-02-16T02:03:13;19;18;
70436;PMS5003;57877;39.750;-104.894;2024-02-16T02:10:30;19;18;
70436;PMS5003;57877;39.750;-104.894;2024-02-16T02:12:55;20;19;
70436;PMS5003;57877;39.750;-104.894;2024-02-16T02:15:20;18;17;
70436;PMS5003;57877;39.750;-104.894;2024-02-16T02:17:45;19;19;
70436;PMS5003;57877;39.750;-104.894;2024-02-16T02:20:10;20;20;
70436;PMS5003;57877;39.750;-104.894;2024-02-16T02:22:35;21;20;
70436;PMS5003;57877;39.750;-104.894;2024-02-16T02:25:00;21;19;
70436;PMS5003;57877;39.750;-104.894;2024-02-16T02:27:26;20;20;
70436;PMS5003;57877;39.750;-104.894;2024-02-16T02:29:51;20;19;
70436;PMS5003;57877;39.750;-104.894;2024-02-16T02:32:17;19;19;
70436;PMS5003;57877;39.750;-104.894;2024-02-16T02:34:42;19;17;
70436;PMS5003;57877;39.750;-104.894;2024-02-16T02:37:07;20;19;
70436;PMS5003;57877;39.750;-104.894;2024-02-16T02:39:32;20;20;
70436;PMS5003;57877;39.750;-104.894;2024-02-16T02:41:57;20;20;
70436;PMS5003;57877;39.750;-104.894;2024-02-16T02:44:22;21;21;
70436;PMS5003;57877;39.750;-104.894;2024-02-16T02:46:47;18;18;
70436;PMS5003;57877;39.750;-104.894;2024-02-16T02:49:13;22;20;
70436;PMS5003;57877;39.750;-104.894;2024-02-16T02:51:38;20;17;
70436;PMS5003;57877;39.750;-104.894;2024-02-16T02:54:04;20;19;
70436;PMS5003;57877;39.750;-104.894;2024-02-16T02:56:28;19;18;
70436;PMS5003;57877;39.750;-104.894;2024-02-16T02:58:53;22;21;
70436;PMS5003;57877;39.750;-104.894;2024-02-16T03:01:19;21;20;
70436;PMS5003;57877;39.750;-104.894;2024-02-16T03:03:46;20;20;
70436;PMS5003;57877;39.750;-104.894;2024-02-16T03:06:11;19;18;
70436;PMS5003;57877;39.750;-104.894;2024-02-16T03:08:37;20;20;
70436;PMS5003;57877;39.750;-104.894;2024-02-16T03:11:04;21;20;
70436;PMS5003;57877;39.750;-104.894;2024-02-16T03:13:29;18;17;
70436;PMS5003;57877;39.750;-104.894;2024-02-16T03:15:55;21;20;
70436;PMS5003;57877;39.750;-104.894;2024-02-16T03:18:21;20;19;
70436;PMS5003;57877;39.750;-104.894;2024-02-16T03:20:46;18;17;
70436;PMS5003;57877;39.750;-104.894;2024-02-16T03:23:11;20;20;
70436;PMS5003;57877;39.750;-104.894;2024-02-16T03:25:36;19;17;
70436;PMS5003;57877;39.750;-104.894;2024-02-16T03:28:01;19;18;
70436;PMS5003;57877;39.750;-104.894;2024-02-16T03:30:26;19;19;
70436;PMS5003;57877;39.750;-104.894;2024-02-16T03:32:51;19;19;
70436;PMS5003;57877;39.750;-104.894;2024-02-16T03:35:16;20;19;
70436;PMS5003;57877;39.750;-104.894;2024-02-16T03:37:41;18;17;
70436;PMS5003;57877;39.750;-104.894;2024-02-16T03:40:07;19;19;
70436;PMS5003;57877;39.750;-104.894;2024-02-16T03:42:31;18;17;
70436;PMS5003;57877;39.750;-104.894;2024-02-16T03:44:56;19;18;
70436;PMS5003;57877;39.750;-104.894;2024-02-16T03:47:21;17;16;
70436;PMS5003;57877;39.750;-104.894;2024-02-16T03:49:46;12;12;
70436;PMS5003;57877;39.750;-104.894;2024-02-16T03:52:11;16;16;
70436;PMS5003;57877;39.750;-104.894;2024-02-16T03:54:37;18;16;
70436;PMS5003;57877;39.750;-104.894;2024-02-16T03:57:01;15;13;
70436;PMS5003;57877;39.750;-104.894;2024-02-16T03:59:26;18;15;
70436;PMS5003;57877;39.750;-104.894;2024-02-16T04:01:51;15;12;
70436;PMS5003;57877;39.750;-104.894;2024-02-16T04:04:17;17;15;
70436;PMS5003;57877;39.750;-104.894;2024-02-16T04:06:43;17;16;
70436;PMS5003;57877;39.750;-104.894;2024-02-16T04:09:09;15;14;
70436;PMS5003;57877;39.750;-104.894;2024-02-16T04:11:34;15;14;
70436;PMS5003;57877;39.750;-104.894;2024-02-16T04:13:59;12;12;
70436;PMS5003;57877;39.750;-104.894;2024-02-16T04:16:25;11;9;
70436;PMS5003;57877;39.750;-104.894;2024-02-16T04:18:51;8;7;
70436;PMS5003;57877;39.750;-104.894;2024-02-16T04:21:17;8;8;
70436;PMS5003;57877;39.750;-104.894;2024-02-16T04:23:43;8;7;
70436;PMS5003;57877;39.750;-104.894;2024-02-16T04:26:08;12;11;
70436;PMS5003;57877;39.750;-104.894;2024-02-16T04:28:33;11;11;
70436;PMS5003;57877;39.750;-104.894;2024-02-16T04:30:58;11;10;
70436;PMS5003;57877;39.750;-104.894;2024-02-16T04:33:23;13;10;
70436;PMS5003;57877;39.750;-104.894;2024-02-16T04:35:49;14;11;
70436;PMS5003;57877;39.750;-104.894;2024-02-16T04:38:14;12;10;
70436;PMS5003;57877;39.750;-104.894;2024-02-16T04:40:40;9;8;
70436;PMS5003;57877;39.750;-104.894;2024-02-16T04:43:06;8;8;
70436;PMS5003;57877;39.750;-104.894;2024-02-16T04:45:32;12;12;
70436;PMS5003;57877;39.750;-104.894;2024-02-16T04:48:02;13;12;
70436;PMS5003;57877;39.750;-104.894;2024-02-16T04:50:23;10;10;
70436;PMS5003;57877;39.750;-104.894;2024-02-16T04:52:48;9;9;
70436;PMS5003;57877;39.750;-104.894;2024-02-16T04:55:14;11;11;
70436;PMS5003;57877;39.750;-104.894;2024-02-16T04:57:40;12;10;
70436;PMS5003;57877;39.750;-104.894;2024-02-16T05:00:06;11;10;
70436;PMS5003;57877;39.750;-104.894;2024-02-16T05:02:32;10;9;
70436;PMS5003;57877;39.750;-104.894;2024-02-16T05:04:57;11;10;
70436;PMS5003;57877;39.750;-104.894;2024-02-16T05:07:22;8;8;
70436;PMS5003;57877;39.750;-104.894;2024-02-16T05:09:47;12;11;
70436;PMS5003;57877;39.750;-104.894;2024-02-16T05:12:12;15;13;
70436;PMS5003;57877;39.750;-104.894;2024-02-16T05:14:37;17;17;
70436;PMS5003;57877;39.750;-104.894;2024-02-16T05:17:02;15;15;
70436;PMS5003;57877;39.750;-104.894;2024-02-16T05:19:31;19;18;
70436;PMS5003;57877;39.750;-104.894;2024-02-16T05:21:54;19;18;
70436;PMS5003;57877;39.750;-104.894;2024-02-16T05:24:20;21;19;
70436;PMS5003;57877;39.750;-104.894;2024-02-16T05:26:46;19;18;
70436;PMS5003;57877;39.750;-104.894;2024-02-16T05:29:11;17;16;
70436;PMS5003;57877;39.750;-104.894;2024-02-16T05:31:37;19;17;
70436;PMS5003;57877;39.750;-104.894;2024-02-16T05:34:02;19;18;
70436;PMS5003;57877;39.750;-104.894;2024-02-16T05:36:27;20;19;
70436;PMS5003;57877;39.750;-104.894;2024-02-16T05:38:53;21;21;
70436;PMS5003;57877;39.750;-104.894;2024-02-16T05:41:18;17;16;
70436;PMS5003;57877;39.750;-104.894;2024-02-16T05:43:44;17;15;
70436;PMS5003;57877;39.750;-104.894;2024-02-16T05:46:12;18;15;
70436;PMS5003;57877;39.750;-104.894;2024-02-16T05:48:35;14;12;
70436;PMS5003;57877;39.750;-104.894;2024-02-16T05:51:00;13;11;
70436;PMS5003;57877;39.750;-104.894;2024-02-16T05:53:27;16;15;
70436;PMS5003;57877;39.750;-104.894;2024-02-16T05:55:52;17;16;
70436;PMS5003;57877;39.750;-104.894;2024-02-16T05:58:17;17;14;
70436;PMS5003;57877;39.750;-104.894;2024-02-16T06:00:42;17;17;
70436;PMS5003;57877;39.750;-104.894;2024-02-16T06:03:08;16;13;
70436;PMS5003;57877;39.750;-104.894;2024-02-16T06:05:34;10;9;
70436;PMS5003;57877;39.750;-104.894;2024-02-16T06:08:00;10;9;
70436;PMS5003;57877;39.750;-104.894;2024-02-16T06:10:26;9;8;
70436;PMS5003;57877;39.750;-104.894;2024-02-16T06:12:51;10;7;
70436;PMS5003;57877;39.750;-104.894;2024-02-16T06:15:16;11;11;
70436;PMS5003;57877;39.750;-104.894;2024-02-16T06:17:41;12;12;
70436;PMS5003;57877;39.750;-104.894;2024-02-16T06:20:06;16;16;
70436;PMS5003;57877;39.750;-104.894;2024-02-16T06:22:31;15;13;
70436;PMS5003;57877;39.750;-104.894;2024-02-16T06:24:56;11;11;
70436;PMS5003;57877;39.750;-104.894;2024-02-16T06:27:21;8;8;
70436;PMS5003;57877;39.750;-104.894;2024-02-16T06:29:46;4;3;
70436;PMS5003;57877;39.750;-104.894;2024-02-16T06:32:11;3;2;
70436;PMS5003;57877;39.750;-104.894;2024-02-16T06:34:36;1;1;
70436;PMS5003;57877;39.750;-104.894;2024-02-16T06:37:01;0;0;
70436;PMS5003;57877;39.750;-104.894;2024-02-16T06:39:27;0;0;
70436;PMS5003;57877;39.750;-104.894;2024-02-16T06:41:52;0;0;
70436;PMS5003;57877;39.750;-104.894;2024-02-16T06:44:17;0;0;
70436;PMS5003;57877;39.750;-104.894;2024-02-16T06:46:42;0;0;
70436;PMS5003;57877;39.750;-104.894;2024-02-16T06:49:07;0;0;
70436;PMS5003;57877;39.750;-104.894;2024-02-16T06:51:32;0;0;
70436;PMS5003;57877;39.750;-104.894;2024-02-16T06:53:57;0;0;
70436;PMS5003;57877;39.750;-104.894;2024-02-16T06:56:23;0;0;
70436;PMS5003;57877;39.750;-104.894;2024-02-16T06:58:47;0;0;
70436;PMS5003;57877;39.750;-104.894;2024-02-16T07:01:12;0;0;
70436;PMS5003;57877;39.750;-104.894;2024-02-16T07:03:37;0;0;
70436;PMS5003;57877;39.750;-104.894;2024-02-16T07:06:03;0;0;
70436;PMS5003;57877;39.750;-104.894;2024-02-16T07:08:28;0;0;
70436;PMS5003;57877;39.750;-104.894;2024-02-16T07:10:53;0;0;
70436;PMS5003;57877;39.750;-104.894;2024-02-16T07:13:18;0;0;
70436;PMS5003;57877;39.750;-104.894;2024-02-16T07:15:43;0;0;
70436;PMS5003;57877;39.750;-104.894;2024-02-16T07:18:08;0;0;
70436;PMS5003;57877;39.750;-104.894;2024-02-16T07:20:33;0;0;
70436;PMS5003;57877;39.750;-104.894;2024-02-16T07:22:58;0;0;
70436;PMS5003;57877;39.750;-104.894;2024-02-16T07:25:23;0;0;
70436;PMS5003;57877;39.750;-104.894;2024-02-16T07:27:48;0;0;
70436;PMS5003;57877;39.750;-104.894;2024-02-16T07:30:13;0;0;
70436;PMS5003;57877;39.750;-104.894;2024-02-16T07:32:38;0;0;
70436;PMS5003;57877;39.750;-104.894;2024-02-16T07:35:03;0;0;
70436;PMS5003;57877;39.750;-104.894;2024-02-16T07:37:28;0;0;
70436;PMS5003;57877;39.750;-104.894;2024-02-16T07:39:53;0;0;
70436;PMS5003;57877;39.750;-104.894;2024-02-16T07:42:18;0;0;
70436;PMS5003;57877;39.750;-104.894;2024-02-16T07:44:44;0;0;
70436;PMS5003;57877;39.750;-104.894;2024-02-16T07:47:09;0;0;
70436;PMS5003;57877;39.750;-104.894;2024-02-16T07:49:37;0;0;
70436;PMS5003;57877;39.750;-104.894;2024-02-16T07:51:59;0;0;
70436;PMS5003;57877;39.750;-104.894;2024-02-16T07:54:24;0;0;
70436;PMS5003;57877;39.750;-104.894;2024-02-16T07:56:49;0;0;
70436;PMS5003;57877;39.750;-104.894;2024-02-16T07:59:14;0;0;
70436;PMS5003;57877;39.750;-104.894;2024-02-16T08:01:39;0;0;
70436;PMS5003;57877;39.750;-104.894;2024-02-16T08:04:04;0;0;
70436;PMS5003;57877;39.750;-104.894;2024-02-16T08:06:29;0;0;
70436;PMS5003;57877;39.750;-104.894;2024-02-16T08:08:54;0;0;
70436;PMS5003;57877;39.750;-104.894;2024-02-16T08:11:19;0;0;
70436;PMS5003;57877;39.750;-104.894;2024-02-16T08:13:44;0;0;
70436;PMS5003;57877;39.750;-104.894;2024-02-16T08:16:10;0;0;
70436;PMS5003;57877;39.750;-104.894;2024-02-16T08:18:35;0;0;
70436;PMS5003;57877;39.750;-104.894;2024-02-16T08:21:00;1;0;
70436;PMS5003;57877;39.750;-104.894;2024-02-16T08:23:25;1;1;
70436;PMS5003;57877;39.750;-104.894;2024-02-16T08:25:50;0;0;
70436;PMS5003;57877;39.750;-104.894;2024-02-16T08:28:15;2;2;
70436;PMS5003;57877;39.750;-104.894;2024-02-16T08:30:40;2;0;
70436;PMS5003;57877;39.750;-104.894;2024-02-16T08:33:05;2;2;
70436;PMS5003;57877;39.750;-104.894;2024-02-16T08:35:30;2;2;
70436;PMS5003;57877;39.750;-104.894;2024-02-16T08:37:55;3;3;
70436;PMS5003;57877;39.750;-104.894;2024-02-16T08:40:20;4;2;
70436;PMS5003;57877;39.750;-104.894;2024-02-16T08:42:45;2;2;
70436;PMS5003;57877;39.750;-104.894;2024-02-16T08:45:10;1;1;
70436;PMS5003;57877;39.750;-104.894;2024-02-16T08:47:36;3;2;
70436;PMS5003;57877;39.750;-104.894;2024-02-16T08:50:01;4;3;
70436;PMS5003;57877;39.750;-104.894;2024-02-16T08:52:26;5;5;
70436;PMS5003;57877;39.750;-104.894;2024-02-16T08:54:51;3;3;
70436;PMS5003;57877;39.750;-104.894;2024-02-16T08:57:16;5;4;
70436;PMS5003;57877;39.750;-104.894;2024-02-16T08:59:41;6;6;
70436;PMS5003;57877;39.750;-104.894;2024-02-16T09:02:06;6;5;
70436;PMS5003;57877;39.750;-104.894;2024-02-16T09:04:31;5;5;
70436;PMS5003;57877;39.750;-104.894;2024-02-16T09:06:56;4;4;
70436;PMS5003;57877;39.750;-104.894;2024-02-16T09:09:21;3;2;
70436;PMS5003;57877;39.750;-104.894;2024-02-16T09:11:46;5;2;
70436;PMS5003;57877;39.750;-104.894;2024-02-16T09:14:11;4;4;
70436;PMS5003;57877;39.750;-104.894;2024-02-16T09:16:36;4;4;
70436;PMS5003;57877;39.750;-104.894;2024-02-16T09:19:02;6;6;
70436;PMS5003;57877;39.750;-104.894;2024-02-16T09:21:27;5;5;
70436;PMS5003;57877;39.750;-104.894;2024-02-16T09:23:52;6;6;
70436;PMS5003;57877;39.750;-104.894;2024-02-16T09:26:17;6;6;
70436;PMS5003;57877;39.750;-104.894;2024-02-16T09:28:42;6;5;
70436;PMS5003;57877;39.750;-104.894;2024-02-16T09:31:07;5;3;
70436;PMS5003;57877;39.750;-104.894;2024-02-16T09:33:32;5;4;
70436;PMS5003;57877;39.750;-104.894;2024-02-16T09:35:57;8;8;
70436;PMS5003;57877;39.750;-104.894;2024-02-16T09:38:22;5;5;
70436;PMS5003;57877;39.750;-104.894;2024-02-16T09:40:47;8;7;
70436;PMS5003;57877;39.750;-104.894;2024-02-16T09:45:38;7;6;
70436;PMS5003;57877;39.750;-104.894;2024-02-16T09:48:03;6;6;
70436;PMS5003;57877;39.750;-104.894;2024-02-16T09:50:28;8;6;
70436;PMS5003;57877;39.750;-104.894;2024-02-16T09:52:54;9;6;
70436;PMS5003;57877;39.750;-104.894;2024-02-16T09:55:18;5;4;
70436;PMS5003;57877;39.750;-104.894;2024-02-16T09:57:43;8;8;
70436;PMS5003;57877;39.750;-104.894;2024-02-16T10:00:09;8;8;
70436;PMS5003;57877;39.750;-104.894;2024-02-16T10:04:59;8;7;
70436;PMS5003;57877;39.750;-104.894;2024-02-16T10:09:49;10;9;
70436;PMS5003;57877;39.750;-104.894;2024-02-16T10:12:18;7;6;
70436;PMS5003;57877;39.750;-104.894;2024-02-16T10:14:39;8;8;
70436;PMS5003;57877;39.750;-104.894;2024-02-16T10:17:04;7;7;
70436;PMS5003;57877;39.750;-104.894;2024-02-16T10:19:29;9;8;
70436;PMS5003;57877;39.750;-104.894;2024-02-16T10:21:54;9;7;
70436;PMS5003;57877;39.750;-104.894;2024-02-16T10:24:21;8;7;
70436;PMS5003;57877;39.750;-104.894;2024-02-16T10:26:44;7;7;
70436;PMS5003;57877;39.750;-104.894;2024-02-16T10:29:10;7;7;
70436;PMS5003;57877;39.750;-104.894;2024-02-16T10:31:35;7;7;
70436;PMS5003;57877;39.750;-104.894;2024-02-16T10:34:00;10;9;
70436;PMS5003;57877;39.750;-104.894;2024-02-16T10:36:25;8;8;
70436;PMS5003;57877;39.750;-104.894;2024-02-16T10:38:50;6;6;
70436;PMS5003;57877;39.750;-104.894;2024-02-16T10:41:15;8;6;
70436;PMS5003;57877;39.750;-104.894;2024-02-16T10:43:40;5;5;
70436;PMS5003;57877;39.750;-104.894;2024-02-16T10:46:05;9;7;
70436;PMS5003;57877;39.750;-104.894;2024-02-16T10:48:30;9;8;
70436;PMS5003;57877;39.750;-104.894;2024-02-16T10:50:55;6;5;
70436;PMS5003;57877;39.750;-104.894;2024-02-16T10:53:22;7;7;
70436;PMS5003;57877;39.750;-104.894;2024-02-16T10:55:46;8;6;
70436;PMS5003;57877;39.750;-104.894;2024-02-16T10:58:11;7;7;
70436;PMS5003;57877;39.750;-104.894;2024-02-16T11:00:36;6;4;
70436;PMS5003;57877;39.750;-104.894;2024-02-16T11:03:02;5;5;
70436;PMS5003;57877;39.750;-104.894;2024-02-16T11:10:16;8;7;
70436;PMS5003;57877;39.750;-104.894;2024-02-16T11:12:43;5;5;
70436;PMS5003;57877;39.750;-104.894;2024-02-16T11:15:08;5;5;
70436;PMS5003;57877;39.750;-104.894;2024-02-16T11:17:31;6;6;
70436;PMS5003;57877;39.750;-104.894;2024-02-16T11:19:57;7;6;
70436;PMS5003;57877;39.750;-104.894;2024-02-16T11:22:22;6;5;
70436;PMS5003;57877;39.750;-104.894;2024-02-16T11:24:47;3;3;
70436;PMS5003;57877;39.750;-104.894;2024-02-16T11:27:12;5;4;
70436;PMS5003;57877;39.750;-104.894;2024-02-16T11:29:37;7;6;
70436;PMS5003;57877;39.750;-104.894;2024-02-16T11:32:02;6;5;
70436;PMS5003;57877;39.750;-104.894;2024-02-16T11:34:27;6;4;
70436;PMS5003;57877;39.750;-104.894;2024-02-16T11:36:53;5;4;
70436;PMS5003;57877;39.750;-104.894;2024-02-16T11:39:17;4;4;
70436;PMS5003;57877;39.750;-104.894;2024-02-16T11:41:42;7;7;
70436;PMS5003;57877;39.750;-104.894;2024-02-16T11:44:08;8;6;
70436;PMS5003;57877;39.750;-104.894;2024-02-16T11:46:33;8;7;
70436;PMS5003;57877;39.750;-104.894;2024-02-16T11:51:23;6;6;
70436;PMS5003;57877;39.750;-104.894;2024-02-16T11:58:39;5;5;
70436;PMS5003;57877;39.750;-104.894;2024-02-16T12:01:04;5;5;
70436;PMS5003;57877;39.750;-104.894;2024-02-16T12:03:29;8;7;
70436;PMS5003;57877;39.750;-104.894;2024-02-16T12:05:54;6;6;
70436;PMS5003;57877;39.750;-104.894;2024-02-16T12:08:19;7;7;
70436;PMS5003;57877;39.750;-104.894;2024-02-16T12:10:44;7;7;
70436;PMS5003;57877;39.750;-104.894;2024-02-16T12:13:09;9;8;
70436;PMS5003;57877;39.750;-104.894;2024-02-16T12:15:34;5;5;
70436;PMS5003;57877;39.750;-104.894;2024-02-16T12:18:00;6;5;
70436;PMS5003;57877;39.750;-104.894;2024-02-16T12:20:24;8;7;
70436;PMS5003;57877;39.750;-104.894;2024-02-16T12:22:49;7;5;
70436;PMS5003;57877;39.750;-104.894;2024-02-16T12:25:14;6;5;
70436;PMS5003;57877;39.750;-104.894;2024-02-16T12:27:39;6;6;
70436;PMS5003;57877;39.750;-104.894;2024-02-16T12:30:05;7;5;
70436;PMS5003;57877;39.750;-104.894;2024-02-16T12:32:30;7;7;
70436;PMS5003;57877;39.750;-104.894;2024-02-16T12:34:55;4;3;
70436;PMS5003;57877;39.750;-104.894;2024-02-16T12:37:20;5;4;
70436;PMS5003;57877;39.750;-104.894;2024-02-16T12:39:45;6;6;
70436;PMS5003;57877;39.750;-104.894;2024-02-16T12:42:10;5;4;
70436;PMS5003;57877;39.750;-104.894;2024-02-16T12:44:35;6;6;
70436;PMS5003;57877;39.750;-104.894;2024-02-16T12:47:00;7;6;
70436;PMS5003;57877;39.750;-104.894;2024-02-16T12:49:25;7;6;
70436;PMS5003;57877;39.750;-104.894;2024-02-16T12:51:50;5;5;
70436;PMS5003;57877;39.750;-104.894;2024-02-16T12:54:15;8;7;
70436;PMS5003;57877;39.750;-104.894;2024-02-16T12:56:40;4;4;
70436;PMS5003;57877;39.750;-104.894;2024-02-16T12:59:06;6;5;
70436;PMS5003;57877;39.750;-104.894;2024-02-16T13:01:31;7;5;
70436;PMS5003;57877;39.750;-104.894;2024-02-16T13:03:56;5;5;
70436;PMS5003;57877;39.750;-104.894;2024-02-16T13:06:21;9;7;
70436;PMS5003;57877;39.750;-104.894;2024-02-16T13:08:46;5;5;
70436;PMS5003;57877;39.750;-104.894;2024-02-16T13:11:11;6;6;
70436;PMS5003;57877;39.750;-104.894;2024-02-16T13:13:36;7;7;
70436;PMS5003;57877;39.750;-104.894;2024-02-16T13:16:01;5;3;
70436;PMS5003;57877;39.750;-104.894;2024-02-16T13:18:26;5;5;
70436;PMS5003;57877;39.750;-104.894;2024-02-16T13:20:52;5;5;
70436;PMS5003;57877;39.750;-104.894;2024-02-16T13:23:17;7;6;
70436;PMS5003;57877;39.750;-104.894;2024-02-16T13:25:42;5;5;
70436;PMS5003;57877;39.750;-104.894;2024-02-16T13:28:07;5;5;
70436;PMS5003;57877;39.750;-104.894;2024-02-16T13:30:32;8;7;
70436;PMS5003;57877;39.750;-104.894;2024-02-16T13:32:57;6;6;
70436;PMS5003;57877;39.750;-104.894;2024-02-16T13:35:22;6;5;
70436;PMS5003;57877;39.750;-104.894;2024-02-16T13:37:47;6;6;
70436;PMS5003;57877;39.750;-104.894;2024-02-16T13:40:12;8;5;
70436;PMS5003;57877;39.750;-104.894;2024-02-16T13:42:38;5;4;
70436;PMS5003;57877;39.750;-104.894;2024-02-16T13:45:03;6;6;
70436;PMS5003;57877;39.750;-104.894;2024-02-16T13:47:27;6;6;
70436;PMS5003;57877;39.750;-104.894;2024-02-16T13:49:52;6;5;
70436;PMS5003;57877;39.750;-104.894;2024-02-16T13:52:17;6;5;
70436;PMS5003;57877;39.750;-104.894;2024-02-16T13:54:43;6;6;
70436;PMS5003;57877;39.750;-104.894;2024-02-16T13:57:08;7;5;
70436;PMS5003;57877;39.750;-104.894;2024-02-16T13:59:33;7;7;
70436;PMS5003;57877;39.750;-104.894;2024-02-16T14:01:58;8;6;
70436;PMS5003;57877;39.750;-104.894;2024-02-16T14:04:23;8;8;
70436;PMS5003;57877;39.750;-104.894;2024-02-16T14:06:48;7;7;
70436;PMS5003;57877;39.750;-104.894;2024-02-16T14:09:13;6;6;
70436;PMS5003;57877;39.750;-104.894;2024-02-16T14:11:38;8;5;
70436;PMS5003;57877;39.750;-104.894;2024-02-16T14:14:03;7;6;
70436;PMS5003;57877;39.750;-104.894;2024-02-16T14:16:29;11;8;
70436;PMS5003;57877;39.750;-104.894;2024-02-16T14:18:53;6;6;
70436;PMS5003;57877;39.750;-104.894;2024-02-16T14:21:18;7;7;
70436;PMS5003;57877;39.750;-104.894;2024-02-16T14:23:43;7;5;
70436;PMS5003;57877;39.750;-104.894;2024-02-16T14:26:08;10;10;
70436;PMS5003;57877;39.750;-104.894;2024-02-16T14:28:33;9;8;
70436;PMS5003;57877;39.750;-104.894;2024-02-16T14:30:59;9;9;
70436;PMS5003;57877;39.750;-104.894;2024-02-16T14:33:24;9;7;
70436;PMS5003;57877;39.750;-104.894;2024-02-16T14:35:49;8;7;
70436;PMS5003;57877;39.750;-104.894;2024-02-16T14:38:14;8;6;
70436;PMS5003;57877;39.750;-104.894;2024-02-16T14:40:39;8;7;
70436;PMS5003;57877;39.750;-104.894;2024-02-16T14:43:04;10;8;
70436;PMS5003;57877;39.750;-104.894;2024-02-16T14:45:29;9;7;
70436;PMS5003;57877;39.750;-104.894;2024-02-16T14:47:54;10;9;
70436;PMS5003;57877;39.750;-104.894;2024-02-16T14:50:19;7;7;
70436;PMS5003;57877;39.750;-104.894;2024-02-16T14:52:44;8;8;
70436;PMS5003;57877;39.750;-104.894;2024-02-16T14:55:10;9;8;
70436;PMS5003;57877;39.750;-104.894;2024-02-16T14:57:35;9;9;
70436;PMS5003;57877;39.750;-104.894;2024-02-16T15:00:00;12;10;
70436;PMS5003;57877;39.750;-104.894;2024-02-16T15:02:25;6;5;
70436;PMS5003;57877;39.750;-104.894;2024-02-16T15:04:50;7;6;
70436;PMS5003;57877;39.750;-104.894;2024-02-16T15:07:16;7;6;
70436;PMS5003;57877;39.750;-104.894;2024-02-16T15:09:40;8;7;
70436;PMS5003;57877;39.750;-104.894;2024-02-16T15:12:06;6;4;
70436;PMS5003;57877;39.750;-104.894;2024-02-16T15:14:30;6;5;
70436;PMS5003;57877;39.750;-104.894;2024-02-16T15:16:55;6;6;
70436;PMS5003;57877;39.750;-104.894;2024-02-16T15:19:21;5;5;
70436;PMS5003;57877;39.750;-104.894;2024-02-16T15:21:45;6;5;
70436;PMS5003;57877;39.750;-104.894;2024-02-16T15:24:11;7;7;
70436;PMS5003;57877;39.750;-104.894;2024-02-16T15:26:36;7;7;
70436;PMS5003;57877;39.750;-104.894;2024-02-16T15:29:01;8;5;
70436;PMS5003;57877;39.750;-104.894;2024-02-16T15:31:26;6;5;
70436;PMS5003;57877;39.750;-104.894;2024-02-16T15:33:51;7;6;
70436;PMS5003;57877;39.750;-104.894;2024-02-16T15:36:16;5;5;
70436;PMS5003;57877;39.750;-104.894;2024-02-16T15:38:41;7;7;
70436;PMS5003;57877;39.750;-104.894;2024-02-16T15:41:06;7;7;
70436;PMS5003;57877;39.750;-104.894;2024-02-16T15:43:31;6;6;
70436;PMS5003;57877;39.750;-104.894;2024-02-16T15:45:56;4;4;
70436;PMS5003;57877;39.750;-104.894;2024-02-16T15:48:21;3;3;
70436;PMS5003;57877;39.750;-104.894;2024-02-16T15:50:47;3;3;
70436;PMS5003;57877;39.750;-104.894;2024-02-16T15:53:11;6;4;
70436;PMS5003;57877;39.750;-104.894;2024-02-16T15:55:37;4;4;
70436;PMS5003;57877;39.750;-104.894;2024-02-16T15:58:02;4;3;
70436;PMS5003;57877;39.750;-104.894;2024-02-16T16:00:27;6;5;